Time;durP1;ratioP1;P1;durP2;ratioP2;P2;SDS_P1;SDS_P2;PMS_P1;PMS_P2;Temp;Humidity;BMP_temperature;BMP_pressure;BME280_temperature;BME280_humidity;BME280_pressure;Samples;Min_cycle;Max_cycle;Signal;HPM_P1;HPM_P2
2023/01/17 00:02:20;;;;;;;66.85;36.42;;;;;;;;;;4898834;29;20024;-71
2023/01/17 00:10:17;;;;;;;46.83;27.92;;;;;;;;;;4899139;29;20399;-70
2023/01/17 00:12:51;;;;;;;51.05;28.40;;;;;;;;;;4898455;29;20020;-72
2023/01/17 00:15:22;;;;;;;51.72;28.85;;;;;;;;;;4899126;29;20040;-72
2023/01/17 00:17:48;;;;;;;48.72;27.73;;;;;;;;;;4881906;29;20494;-72
2023/01/17 00:26:03;;;;;;;47.95;28.13;;;;;;;;;;4890535;29;20032;-73
2023/01/17 01:35:51;;;;;;;44.40;25.30;;;;;;;;;;4892247;29;20020;-72
2023/01/17 01:38:18;;;;;;;44.42;26.75;;;;;;;;;;4895482;29;20041;-71
2023/01/17 01:40:46;;;;;;;47.22;26.92;;;;;;;;;;4898035;29;20048;-71
2023/01/17 01:43:14;;;;;;;44.38;25.98;;;;;;;;;;4898252;29;20033;-71
2023/01/17 01:45:45;;;;;;;49.95;27.45;;;;;;;;;;4898309;29;20025;-71
2023/01/17 01:48:34;;;;;;;44.85;27.00;;;;;;;;;;4895992;29;20571;-71
2023/01/17 01:51:07;;;;;;;52.15;28.70;;;;;;;;;;4894692;29;20070;-72
2023/01/17 01:53:37;;;;;;;47.78;26.35;;;;;;;;;;4898259;29;20040;-72
2023/01/17 01:56:06;;;;;;;45.67;24.33;;;;;;;;;;4897840;29;20056;-71
2023/01/17 01:58:33;;;;;;;44.30;24.88;;;;;;;;;;4897103;29;20028;-72
2023/01/17 02:00:59;;;;;;;45.22;26.60;;;;;;;;;;4889928;29;20104;-71
2023/01/17 02:03:29;;;;;;;44.38;24.17;;;;;;;;;;4898010;29;20400;-71
2023/01/17 02:06:01;;;;;;;38.63;21.60;;;;;;;;;;4897918;29;20436;-72
2023/01/17 02:08:27;;;;;;;36.42;21.10;;;;;;;;;;4890585;29;20041;-71
2023/01/17 02:10:54;;;;;;;36.88;22.20;;;;;;;;;;4896343;29;20021;-71
2023/01/17 02:13:20;;;;;;;32.92;20.20;;;;;;;;;;4898024;29;20391;-70
2023/01/17 02:15:55;;;;;;;33.42;20.27;;;;;;;;;;4891808;29;20029;-71
2023/01/17 02:18:36;;;;;;;34.03;19.05;;;;;;;;;;4897565;29;20349;-71
2023/01/17 02:21:04;;;;;;;32.97;19.58;;;;;;;;;;4896127;29;20538;-71
2023/01/17 02:23:58;;;;;;;33.10;19.13;;;;;;;;;;4898118;29;20545;-70
2023/01/17 02:26:39;;;;;;;33.42;19.25;;;;;;;;;;4897387;29;20040;-71
2023/01/17 02:29:38;;;;;;;27.90;17.52;;;;;;;;;;4898113;29;20045;-72
2023/01/17 02:32:12;;;;;;;28.90;17.52;;;;;;;;;;4897729;29;20088;-71
2023/01/17 02:35:19;;;;;;;29.92;16.58;;;;;;;;;;4897936;29;20147;-72
2023/01/17 02:38:01;;;;;;;31.60;17.40;;;;;;;;;;4847755;29;20142;-72
2023/01/17 02:40:37;;;;;;;28.23;16.00;;;;;;;;;;4850340;29;20441;-71
2023/01/17 02:43:07;;;;;;;29.73;17.92;;;;;;;;;;4867972;29;20055;-71
2023/01/17 02:45:33;;;;;;;30.95;17.77;;;;;;;;;;4901516;29;20486;-71
2023/01/17 02:47:59;;;;;;;28.40;16.50;;;;;;;;;;4901900;29;20037;-71
2023/01/17 02:50:36;;;;;;;30.17;17.48;;;;;;;;;;4898205;29;20535;-71
2023/01/17 02:53:07;;;;;;;34.08;18.17;;;;;;;;;;4903049;29;20052;-72
2023/01/17 02:55:52;;;;;;;31.60;16.58;;;;;;;;;;4915215;29;20044;-71
2023/01/17 02:58:37;;;;;;;27.67;16.30;;;;;;;;;;4915244;29;20051;-71
2023/01/17 03:01:18;;;;;;;25.25;15.05;;;;;;;;;;4913868;29;20089;-70
2023/01/17 03:04:12;;;;;;;27.20;15.48;;;;;;;;;;4902877;29;20040;-70
2023/01/17 03:06:56;;;;;;;27.10;15.93;;;;;;;;;;4891694;29;20049;-70
2023/01/17 03:09:24;;;;;;;31.15;16.80;;;;;;;;;;4877904;29;20045;-70
2023/01/17 03:11:51;;;;;;;32.33;17.58;;;;;;;;;;4878346;29;20148;-71
2023/01/17 03:14:16;;;;;;;29.65;17.60;;;;;;;;;;4896707;29;20036;-71
2023/01/17 03:16:42;;;;;;;28.48;17.25;;;;;;;;;;4893453;29;20390;-71
2023/01/17 03:19:13;;;;;;;27.38;16.10;;;;;;;;;;4893954;29;20036;-71
2023/01/17 03:21:41;;;;;;;35.28;18.05;;;;;;;;;;4888976;29;20204;-70
2023/01/17 03:24:07;;;;;;;30.63;17.30;;;;;;;;;;4893743;29;20028;-71
2023/01/17 03:26:33;;;;;;;34.38;17.55;;;;;;;;;;4895887;29;20067;-71
2023/01/17 03:28:58;;;;;;;31.98;17.15;;;;;;;;;;4896784;29;20375;-71
2023/01/17 03:31:24;;;;;;;28.58;16.00;;;;;;;;;;4896309;29;20058;-71
2023/01/17 03:33:50;;;;;;;30.10;16.35;;;;;;;;;;4879827;29;20041;-71
2023/01/17 03:36:15;;;;;;;24.80;15.02;;;;;;;;;;4881958;29;20116;-71
2023/01/17 03:38:41;;;;;;;29.05;15.85;;;;;;;;;;4876529;29;20088;-71
2023/01/17 03:41:07;;;;;;;27.58;15.52;;;;;;;;;;4888653;29;20530;-71
2023/01/17 03:43:33;;;;;;;25.45;14.52;;;;;;;;;;4896343;29;20029;-71
2023/01/17 03:46:06;;;;;;;27.77;14.20;;;;;;;;;;4895716;29;20439;-71
2023/01/17 03:48:32;;;;;;;21.65;13.70;;;;;;;;;;4896778;29;20055;-71
2023/01/17 03:50:58;;;;;;;26.55;14.93;;;;;;;;;;4896596;29;20125;-71
2023/01/17 03:53:24;;;;;;;25.60;14.85;;;;;;;;;;4896761;29;20135;-71
2023/01/17 03:55:50;;;;;;;24.08;14.02;;;;;;;;;;4897031;29;20426;-72
2023/01/17 03:58:16;;;;;;;26.50;15.20;;;;;;;;;;4896827;29;20036;-71
2023/01/17 04:00:42;;;;;;;26.23;15.60;;;;;;;;;;4913737;29;20375;-72
2023/01/17 04:03:08;;;;;;;23.20;13.93;;;;;;;;;;4904878;29;20489;-71
2023/01/17 04:05:34;;;;;;;26.13;14.32;;;;;;;;;;4884009;29;20036;-70
2023/01/17 04:07:59;;;;;;;25.77;14.30;;;;;;;;;;4876985;29;20048;-71
2023/01/17 04:10:25;;;;;;;31.27;15.70;;;;;;;;;;4861089;29;20056;-72
2023/01/17 04:13:15;;;;;;;24.63;13.90;;;;;;;;;;4881423;29;20493;-71
2023/01/17 04:15:47;;;;;;;26.27;14.77;;;;;;;;;;4896130;29;20112;-72
2023/01/17 04:18:15;;;;;;;36.92;16.13;;;;;;;;;;4896846;29;20041;-71
2023/01/17 04:20:41;;;;;;;37.72;18.38;;;;;;;;;;4896590;29;20471;-71
2023/01/17 04:23:07;;;;;;;35.65;17.95;;;;;;;;;;4892435;29;20041;-72
2023/01/17 04:25:32;;;;;;;48.85;22.02;;;;;;;;;;4899473;29;20024;-71
2023/01/17 04:28:00;;;;;;;33.78;17.63;;;;;;;;;;4899711;29;20060;-71
2023/01/17 04:30:27;;;;;;;27.98;15.40;;;;;;;;;;4899937;29;20039;-71
2023/01/17 04:32:53;;;;;;;29.90;16.23;;;;;;;;;;4898433;29;20115;-71
2023/01/17 04:35:19;;;;;;;31.10;15.80;;;;;;;;;;4899895;29;20083;-71
2023/01/17 04:37:46;;;;;;;26.55;13.93;;;;;;;;;;4898638;29;20036;-72
2023/01/17 04:40:12;;;;;;;26.40;14.90;;;;;;;;;;4900003;29;20029;-71
2023/01/17 04:42:38;;;;;;;27.40;15.00;;;;;;;;;;4898533;29;20056;-72
2023/01/17 04:45:04;;;;;;;28.60;14.13;;;;;;;;;;4899591;29;20032;-72
2023/01/17 04:47:29;;;;;;;24.25;14.18;;;;;;;;;;4894708;29;20270;-71
2023/01/17 04:49:56;;;;;;;23.92;13.45;;;;;;;;;;4899466;29;20029;-71
2023/01/17 04:52:21;;;;;;;21.73;13.65;;;;;;;;;;4899413;29;20614;-71
2023/01/17 04:54:48;;;;;;;24.52;13.40;;;;;;;;;;4899310;29;20024;-71
2023/01/17 04:57:15;;;;;;;24.40;12.90;;;;;;;;;;4899390;29;20547;-70
2023/01/17 04:59:41;;;;;;;23.92;13.20;;;;;;;;;;4882613;29;20471;-70
2023/01/17 05:02:07;;;;;;;26.45;12.88;;;;;;;;;;4899062;29;20119;-72
2023/01/17 05:04:33;;;;;;;20.95;12.27;;;;;;;;;;4899693;29;20108;-71
2023/01/17 05:06:59;;;;;;;23.80;12.50;;;;;;;;;;4899769;29;20079;-72
2023/01/17 05:09:24;;;;;;;26.20;14.40;;;;;;;;;;4899180;29;20147;-70
2023/01/17 05:11:50;;;;;;;38.30;16.60;;;;;;;;;;4898833;29;20043;-72
2023/01/17 05:14:16;;;;;;;24.40;13.18;;;;;;;;;;4867005;29;20028;-71
2023/01/17 05:16:42;;;;;;;37.80;14.82;;;;;;;;;;4897578;29;20037;-71
2023/01/17 05:19:09;;;;;;;29.10;13.68;;;;;;;;;;4897603;29;20024;-71
2023/01/17 05:21:35;;;;;;;26.90;13.90;;;;;;;;;;4882014;29;20084;-71
2023/01/17 05:24:00;;;;;;;26.50;13.90;;;;;;;;;;4898700;29;20440;-71
2023/01/17 05:26:26;;;;;;;24.58;13.75;;;;;;;;;;4878299;29;20032;-72
2023/01/17 05:28:52;;;;;;;24.80;14.48;;;;;;;;;;4895328;29;20035;-72
2023/01/17 05:31:18;;;;;;;36.83;15.50;;;;;;;;;;4898012;29;20037;-69
2023/01/17 05:33:43;;;;;;;32.55;15.63;;;;;;;;;;4892360;29;20028;-71
2023/01/17 05:36:09;;;;;;;28.02;14.88;;;;;;;;;;4897550;29;20482;-71
2023/01/17 05:38:35;;;;;;;40.95;17.23;;;;;;;;;;4894115;29;20036;-71
2023/01/17 05:41:01;;;;;;;26.23;13.38;;;;;;;;;;4896616;29;20032;-73
2023/01/17 05:43:27;;;;;;;44.15;17.70;;;;;;;;;;4898284;29;20033;-75
2023/01/17 05:45:53;;;;;;;45.63;20.48;;;;;;;;;;4896599;29;20036;-72
2023/01/17 05:48:20;;;;;;;40.03;22.83;;;;;;;;;;4875291;29;20043;-72
2023/01/17 05:50:46;;;;;;;42.42;20.92;;;;;;;;;;4900741;29;20029;-73
2023/01/17 05:53:13;;;;;;;44.78;22.65;;;;;;;;;;4900459;29;20025;-72
2023/01/17 05:55:40;;;;;;;52.78;23.55;;;;;;;;;;4894070;29;20111;-75
2023/01/17 05:58:07;;;;;;;48.50;24.92;;;;;;;;;;4891312;29;20112;-73
2023/01/17 06:00:33;;;;;;;44.55;24.30;;;;;;;;;;4896296;29;20112;-74
2023/01/17 06:03:00;;;;;;;46.80;25.25;;;;;;;;;;4896738;29;20411;-73
2023/01/17 06:05:27;;;;;;;49.63;24.60;;;;;;;;;;4897082;29;20092;-74
2023/01/17 06:07:53;;;;;;;71.68;28.60;;;;;;;;;;4896378;29;20035;-73
2023/01/17 06:10:21;;;;;;;65.93;29.17;;;;;;;;;;4897425;29;20036;-73
2023/01/17 06:12:46;;;;;;;56.45;24.70;;;;;;;;;;4897177;29;20620;-73
2023/01/17 06:15:14;;;;;;;55.90;25.10;;;;;;;;;;4896221;29;20103;-73
2023/01/17 06:17:40;;;;;;;46.60;22.73;;;;;;;;;;4898025;29;20405;-72
2023/01/17 06:20:07;;;;;;;47.00;24.13;;;;;;;;;;4897321;29;20029;-73
2023/01/17 06:22:33;;;;;;;50.95;25.55;;;;;;;;;;4897146;29;20063;-73
2023/01/17 06:25:00;;;;;;;62.22;31.35;;;;;;;;;;4880472;29;20499;-73
2023/01/17 06:27:26;;;;;;;73.28;32.63;;;;;;;;;;4888488;29;20400;-74
2023/01/17 06:29:52;;;;;;;63.20;29.33;;;;;;;;;;4877236;29;20120;-74
2023/01/17 06:32:18;;;;;;;63.25;27.27;;;;;;;;;;4861799;29;20108;-74
2023/01/17 06:34:44;;;;;;;60.55;28.92;;;;;;;;;;4878706;29;20041;-74
2023/01/17 06:37:09;;;;;;;58.78;29.00;;;;;;;;;;4877476;29;20124;-74
2023/01/17 06:39:35;;;;;;;57.75;31.38;;;;;;;;;;4878713;29;20037;-74
2023/01/17 06:42:01;;;;;;;88.93;43.03;;;;;;;;;;4877386;29;20262;-75
2023/01/17 06:44:27;;;;;;;73.32;34.60;;;;;;;;;;4879061;29;20041;-75
2023/01/17 06:46:53;;;;;;;77.75;35.17;;;;;;;;;;4879111;29;20124;-75
2023/01/17 06:49:19;;;;;;;74.18;34.65;;;;;;;;;;4878500;29;20037;-75
2023/01/17 06:51:44;;;;;;;68.32;30.65;;;;;;;;;;4878211;29;20025;-74
2023/01/17 06:54:10;;;;;;;61.95;30.42;;;;;;;;;;4878240;29;20088;-74
2023/01/17 06:56:36;;;;;;;61.22;30.10;;;;;;;;;;4861423;29;20031;-74
2023/01/17 06:59:03;;;;;;;64.85;30.92;;;;;;;;;;4878125;29;20036;-75
2023/01/17 07:01:29;;;;;;;65.18;31.33;;;;;;;;;;4878055;29;20553;-76
2023/01/17 07:03:56;;;;;;;72.05;33.08;;;;;;;;;;4876029;29;20045;-77
2023/01/17 07:06:23;;;;;;;62.72;33.08;;;;;;;;;;4878060;29;20039;-75
2023/01/17 07:08:51;;;;;;;71.88;31.95;;;;;;;;;;4878225;29;20057;-75
2023/01/17 07:11:17;;;;;;;57.20;34.47;;;;;;;;;;4878580;29;20088;-75
2023/01/17 07:13:43;;;;;;;78.68;37.25;;;;;;;;;;4877717;29;20049;-77
2023/01/17 07:16:09;;;;;;;69.43;37.53;;;;;;;;;;4878181;29;20092;-75
2023/01/17 07:18:34;;;;;;;56.97;34.22;;;;;;;;;;4877154;29;20530;-75
2023/01/17 07:21:00;;;;;;;59.42;33.72;;;;;;;;;;4878778;29;20025;-75
2023/01/17 07:23:26;;;;;;;71.28;34.53;;;;;;;;;;4876887;29;20044;-75
2023/01/17 07:25:56;;;;;;;64.32;32.83;;;;;;;;;;4881124;29;20025;-74
2023/01/17 07:28:25;;;;;;;78.22;34.63;;;;;;;;;;4885451;29;20037;-75
2023/01/17 07:30:51;;;;;;;66.78;33.67;;;;;;;;;;4868030;29;20286;-75
2023/01/17 07:33:19;;;;;;;61.88;30.20;;;;;;;;;;4890450;29;20037;-74
2023/01/17 07:35:45;;;;;;;66.20;31.73;;;;;;;;;;4902569;29;20062;-73
2023/01/17 07:38:17;;;;;;;49.35;25.50;;;;;;;;;;4900644;29;20048;-76
2023/01/17 07:40:43;;;;;;;60.55;29.15;;;;;;;;;;4897627;29;20073;-74
2023/01/17 07:43:16;;;;;;;80.72;32.10;;;;;;;;;;4896845;29;20463;-76
2023/01/17 07:45:44;;;;;;;59.38;30.17;;;;;;;;;;4896677;29;20041;-75
2023/01/17 07:48:10;;;;;;;66.97;30.02;;;;;;;;;;4896777;29;20025;-75
2023/01/17 07:50:37;;;;;;;47.13;27.73;;;;;;;;;;4896115;29;20128;-75
2023/01/17 07:53:04;;;;;;;53.17;28.00;;;;;;;;;;4895187;29;20103;-74
2023/01/17 07:55:31;;;;;;;55.85;29.38;;;;;;;;;;4895744;29;20048;-73
2023/01/17 07:57:57;;;;;;;54.33;29.35;;;;;;;;;;4899574;29;20036;-75
2023/01/17 08:00:25;;;;;;;57.58;28.73;;;;;;;;;;4882774;29;20047;-74
2023/01/17 08:02:57;;;;;;;44.58;25.40;;;;;;;;;;4900043;29;20501;-73
2023/01/17 08:05:24;;;;;;;46.33;26.77;;;;;;;;;;4900796;29;20048;-75
2023/01/17 08:07:50;;;;;;;46.30;26.13;;;;;;;;;;4901374;29;20037;-74
2023/01/17 08:10:17;;;;;;;42.38;24.00;;;;;;;;;;4900210;29;20045;-73
2023/01/17 08:12:50;;;;;;;43.92;23.27;;;;;;;;;;4900001;29;20346;-74
2023/01/17 08:15:17;;;;;;;50.65;26.25;;;;;;;;;;4898204;29;20096;-74
2023/01/17 08:17:52;;;;;;;48.03;25.90;;;;;;;;;;4899857;29;20056;-76
2023/01/17 08:20:19;;;;;;;43.55;23.75;;;;;;;;;;4899608;29;20119;-74
2023/01/17 08:22:45;;;;;;;41.67;24.10;;;;;;;;;;4899119;29;20116;-75
2023/01/17 08:25:12;;;;;;;46.65;24.48;;;;;;;;;;4899459;29;20040;-75
2023/01/17 08:27:38;;;;;;;47.53;24.42;;;;;;;;;;4899481;29;20035;-75
2023/01/17 08:30:05;;;;;;;55.42;27.90;;;;;;;;;;4899246;29;20076;-73
2023/01/17 08:32:32;;;;;;;46.80;27.23;;;;;;;;;;4882441;29;20096;-75
2023/01/17 08:34:57;;;;;;;51.92;28.80;;;;;;;;;;4898840;29;20104;-73
2023/01/17 08:37:23;;;;;;;51.40;30.02;;;;;;;;;;4897978;29;20104;-74
2023/01/17 08:39:49;;;;;;;55.20;30.98;;;;;;;;;;4882576;29;20045;-74
2023/01/17 08:42:15;;;;;;;66.85;32.83;;;;;;;;;;4897755;29;20040;-74
2023/01/17 08:44:42;;;;;;;57.00;30.23;;;;;;;;;;4899213;29;20041;-73
2023/01/17 08:47:08;;;;;;;45.42;26.65;;;;;;;;;;4899073;29;20064;-73
2023/01/17 08:49:34;;;;;;;55.78;26.00;;;;;;;;;;4898732;29;20047;-74
2023/01/17 08:52:00;;;;;;;50.10;25.08;;;;;;;;;;4900620;29;20028;-74
2023/01/17 08:54:27;;;;;;;45.17;21.42;;;;;;;;;;4885700;29;20052;-74
2023/01/17 08:56:54;;;;;;;43.47;21.27;;;;;;;;;;4898755;29;20071;-75
2023/01/17 08:59:21;;;;;;;45.97;22.67;;;;;;;;;;4898538;29;20041;-74
2023/01/17 09:01:46;;;;;;;44.40;24.40;;;;;;;;;;4898812;29;20071;-73
2023/01/17 09:04:14;;;;;;;40.75;22.95;;;;;;;;;;4899393;29;20033;-75
2023/01/17 09:06:47;;;;;;;38.78;22.85;;;;;;;;;;4880832;29;20050;-72
2023/01/17 09:09:15;;;;;;;40.25;21.65;;;;;;;;;;4881859;29;20531;-75
2023/01/17 09:11:40;;;;;;;43.03;21.27;;;;;;;;;;4898470;29;20029;-75
2023/01/17 09:14:06;;;;;;;43.63;21.55;;;;;;;;;;4898973;29;20040;-76
2023/01/17 09:16:32;;;;;;;41.17;21.60;;;;;;;;;;4899041;29;20435;-74
2023/01/17 09:18:58;;;;;;;45.88;22.38;;;;;;;;;;4897314;29;20032;-75
2023/01/17 09:21:25;;;;;;;31.15;18.88;;;;;;;;;;4898445;29;20021;-76
2023/01/17 09:23:51;;;;;;;43.95;19.92;;;;;;;;;;4881338;29;20079;-74
2023/01/17 09:26:24;;;;;;;31.42;18.67;;;;;;;;;;4881193;29;20475;-75
2023/01/17 09:28:50;;;;;;;31.60;17.92;;;;;;;;;;4900175;29;20092;-76
2023/01/17 09:31:17;;;;;;;39.00;20.20;;;;;;;;;;4898417;29;20507;-76
2023/01/17 09:33:43;;;;;;;32.45;19.58;;;;;;;;;;4881957;29;20075;-74
2023/01/17 09:36:09;;;;;;;35.80;21.10;;;;;;;;;;4882043;29;20507;-74
2023/01/17 09:38:36;;;;;;;40.30;23.17;;;;;;;;;;4898387;29;20044;-72
2023/01/17 09:41:02;;;;;;;34.72;17.65;;;;;;;;;;4881847;29;20033;-72
2023/01/17 09:43:34;;;;;;;25.65;16.30;;;;;;;;;;4898048;29;20119;-74
2023/01/17 09:46:00;;;;;;;27.65;15.88;;;;;;;;;;4898728;29;20040;-73
2023/01/17 09:48:38;;;;;;;28.42;16.50;;;;;;;;;;4897384;29;20028;-71
2023/01/17 09:51:20;;;;;;;30.50;18.30;;;;;;;;;;4880153;29;20044;-73
2023/01/17 09:53:46;;;;;;;26.10;16.48;;;;;;;;;;4897862;29;20043;-74
2023/01/17 09:56:28;;;;;;;23.95;15.43;;;;;;;;;;4896404;29;20036;-73
2023/01/17 09:59:19;;;;;;;31.58;13.88;;;;;;;;;;4897707;29;20195;-73
2023/01/17 10:02:13;;;;;;;23.88;12.63;;;;;;;;;;4898158;29;20033;-73
2023/01/17 10:04:51;;;;;;;15.55;9.13;;;;;;;;;;4894725;29;20100;-74
2023/01/17 10:07:39;;;;;;;20.92;10.13;;;;;;;;;;4898027;29;20044;-74
2023/01/17 10:10:50;;;;;;;24.67;13.13;;;;;;;;;;4896716;29;20044;-75
2023/01/17 10:13:30;;;;;;;23.63;13.40;;;;;;;;;;4876537;29;20037;-75
2023/01/17 10:16:10;;;;;;;24.88;12.45;;;;;;;;;;4876552;29;20040;-74
2023/01/17 10:19:24;;;;;;;22.45;13.23;;;;;;;;;;4876475;29;20049;-75
2023/01/17 10:22:09;;;;;;;21.63;11.05;;;;;;;;;;4876402;29;20535;-73
2023/01/17 10:25:11;;;;;;;18.33;12.00;;;;;;;;;;4876495;29;20045;-74
2023/01/17 10:27:43;;;;;;;22.63;11.13;;;;;;;;;;4877021;29;20044;-74
2023/01/17 10:30:41;;;;;;;25.17;12.30;;;;;;;;;;4861448;29;20051;-74
2023/01/17 10:33:48;;;;;;;21.98;12.00;;;;;;;;;;4874012;29;20191;-74
2023/01/17 10:36:20;;;;;;;20.98;10.80;;;;;;;;;;4870987;29;20082;-73
2023/01/17 10:38:51;;;;;;;22.42;12.05;;;;;;;;;;4876229;29;20037;-73
2023/01/17 10:41:30;;;;;;;22.50;12.80;;;;;;;;;;4876142;29;20036;-74
2023/01/17 10:44:05;;;;;;;25.58;15.23;;;;;;;;;;4886643;29;20052;-74
2023/01/17 10:46:42;;;;;;;22.35;12.48;;;;;;;;;;4895128;29;20435;-72
2023/01/17 10:49:36;;;;;;;18.42;11.02;;;;;;;;;;4897469;29;20112;-75
2023/01/17 10:52:11;;;;;;;24.27;13.15;;;;;;;;;;4897053;29;20060;-73
2023/01/17 10:55:02;;;;;;;33.03;16.60;;;;;;;;;;4896824;29;20036;-74
2023/01/17 10:57:36;;;;;;;31.67;16.10;;;;;;;;;;4897061;29;20028;-74
2023/01/17 11:00:29;;;;;;;16.85;10.50;;;;;;;;;;4879971;29;20063;-73
2023/01/17 11:02:55;;;;;;;22.67;12.73;;;;;;;;;;4896165;29;20132;-74
2023/01/17 11:05:27;;;;;;;29.13;15.40;;;;;;;;;;4863980;29;20032;-73
2023/01/17 11:08:01;;;;;;;23.02;14.40;;;;;;;;;;4894794;29;20540;-75
2023/01/17 11:10:45;;;;;;;22.55;13.68;;;;;;;;;;4896606;29;20060;-73
2023/01/17 11:13:22;;;;;;;34.00;14.63;;;;;;;;;;4896495;29;20036;-73
2023/01/17 11:15:52;;;;;;;25.73;14.02;;;;;;;;;;4884014;29;20041;-74
2023/01/17 11:18:20;;;;;;;21.92;13.77;;;;;;;;;;4878165;29;20037;-74
2023/01/17 11:20:48;;;;;;;29.77;14.77;;;;;;;;;;4876546;29;20032;-74
2023/01/17 11:23:21;;;;;;;30.48;17.00;;;;;;;;;;4878093;29;20122;-73
2023/01/17 11:26:01;;;;;;;25.58;15.10;;;;;;;;;;4859719;29;20044;-75
2023/01/17 11:28:34;;;;;;;41.25;19.52;;;;;;;;;;4877848;29;20045;-74
2023/01/17 11:31:08;;;;;;;26.80;16.58;;;;;;;;;;4877473;29;20065;-75
2023/01/17 11:33:45;;;;;;;41.28;19.63;;;;;;;;;;4877496;29;20393;-74
2023/01/17 11:36:18;;;;;;;37.35;19.63;;;;;;;;;;4876582;29;20048;-76
2023/01/17 11:39:01;;;;;;;39.70;22.10;;;;;;;;;;4878440;29;20120;-75
2023/01/17 11:41:38;;;;;;;38.42;21.73;;;;;;;;;;4887675;29;20068;-74
2023/01/17 11:44:26;;;;;;;41.97;23.83;;;;;;;;;;4880350;29;20534;-75
2023/01/17 11:47:13;;;;;;;61.67;25.98;;;;;;;;;;4890349;29;20411;-77
2023/01/17 11:49:43;;;;;;;46.00;25.52;;;;;;;;;;4888293;29;20205;-75
2023/01/17 11:52:29;;;;;;;46.22;23.67;;;;;;;;;;4896301;29;20172;-76
2023/01/17 11:54:55;;;;;;;43.15;22.98;;;;;;;;;;4879612;29;20045;-73
2023/01/17 11:57:34;;;;;;;50.05;22.63;;;;;;;;;;4875422;29;20036;-74
2023/01/17 12:00:22;;;;;;;30.25;19.42;;;;;;;;;;4873737;29;20052;-74
2023/01/17 12:03:14;;;;;;;42.45;20.10;;;;;;;;;;4860206;29;20041;-74
2023/01/17 12:05:42;;;;;;;48.42;18.92;;;;;;;;;;4876712;29;20037;-73
2023/01/17 12:08:17;;;;;;;33.92;18.98;;;;;;;;;;4885882;29;20502;-73
2023/01/17 12:11:15;;;;;;;27.08;16.60;;;;;;;;;;4895847;29;20028;-74
2023/01/17 12:14:10;;;;;;;33.72;18.60;;;;;;;;;;4883182;29;20028;-71
2023/01/17 12:16:57;;;;;;;31.27;19.00;;;;;;;;;;4877510;29;20052;-72
2023/01/17 12:20:00;;;;;;;34.03;18.48;;;;;;;;;;4878978;29;20102;-72
2023/01/17 12:23:00;;;;;;;39.00;20.30;;;;;;;;;;4805843;29;20066;-74
2023/01/17 12:25:55;;;;;;;33.40;20.23;;;;;;;;;;4806342;29;20046;-74
2023/01/17 12:28:33;;;;;;;39.35;21.33;;;;;;;;;;4805407;29;20054;-75
2023/01/17 12:31:09;;;;;;;35.20;19.70;;;;;;;;;;4811428;29;20210;-74
2023/01/17 12:34:09;;;;;;;34.53;19.70;;;;;;;;;;4810084;29;20358;-76
2023/01/17 12:36:47;;;;;;;37.22;19.30;;;;;;;;;;4802415;29;20043;-76
2023/01/17 12:39:18;;;;;;;34.10;18.83;;;;;;;;;;4802049;29;20142;-75
2023/01/17 12:41:53;;;;;;;32.15;18.00;;;;;;;;;;4802145;29;20130;-76
2023/01/17 12:44:31;;;;;;;29.20;17.23;;;;;;;;;;4805028;29;20061;-75
2023/01/17 12:47:01;;;;;;;26.17;16.52;;;;;;;;;;4801502;29;20049;-76
2023/01/17 12:49:44;;;;;;;25.67;15.85;;;;;;;;;;4778517;29;20054;-75
2023/01/17 12:52:20;;;;;;;26.55;12.88;;;;;;;;;;4805005;29;20097;-76
2023/01/17 12:54:50;;;;;;;22.65;13.00;;;;;;;;;;4787270;30;20467;-74
2023/01/17 12:57:31;;;;;;;26.02;14.73;;;;;;;;;;4811661;29;20513;-73
2023/01/17 12:59:57;;;;;;;30.30;15.05;;;;;;;;;;4883513;29;20100;-74
2023/01/17 13:02:58;;;;;;;27.30;13.77;;;;;;;;;;4899196;29;20424;-75
2023/01/17 13:05:28;;;;;;;37.17;17.48;;;;;;;;;;4878219;29;20052;-74
2023/01/17 13:08:12;;;;;;;28.48;15.52;;;;;;;;;;4878070;29;20045;-74
2023/01/17 13:10:50;;;;;;;;;;;;;;;;;;4861106;29;20073;-73
2023/01/17 13:13:22;;;;;;;19.20;11.95;;;;;;;;;;4883539;29;19919;-76
2023/01/17 13:15:56;;;;;;;24.80;13.68;;;;;;;;;;4884445;29;20049;-73
2023/01/17 13:18:28;;;;;;;17.92;11.82;;;;;;;;;;4885531;29;20196;-73
2023/01/17 13:21:06;;;;;;;23.23;11.50;;;;;;;;;;4886605;29;20039;-76
2023/01/17 13:23:34;;;;;;;19.75;11.50;;;;;;;;;;4879777;29;20047;-74
2023/01/17 13:26:02;;;;;;;20.70;11.43;;;;;;;;;;4880536;29;20041;-76
2023/01/17 13:28:54;;;;;;;20.95;11.35;;;;;;;;;;4860962;29;20514;-76
2023/01/17 13:31:38;;;;;;;21.23;10.23;;;;;;;;;;4882777;29;20124;-73
2023/01/17 13:34:34;;;;;;;22.00;12.20;;;;;;;;;;4858765;29;20451;-74
2023/01/17 13:37:27;;;;;;;22.10;11.48;;;;;;;;;;4861525;29;20575;-73
2023/01/17 13:40:05;;;;;;;45.47;15.73;;;;;;;;;;4885327;29;20041;-78
2023/01/17 13:42:58;;;;;;;20.63;12.43;;;;;;;;;;4875536;29;20036;-76
2023/01/17 13:45:28;;;;;;;25.38;10.05;;;;;;;;;;4892793;29;20035;-73
2023/01/17 13:48:08;;;;;;;19.20;10.88;;;;;;;;;;4894397;29;20526;-74
2023/01/17 13:50:37;;;;;;;17.05;10.13;;;;;;;;;;4900418;29;20032;-74
2023/01/17 13:53:28;;;;;;;17.77;9.70;;;;;;;;;;4897528;29;20056;-73
2023/01/17 13:56:30;;;;;;;15.32;8.43;;;;;;;;;;4895160;29;20115;-72
2023/01/17 13:59:03;;;;;;;18.83;10.52;;;;;;;;;;4880299;29;20040;-72
2023/01/17 14:01:37;;;;;;;26.90;12.85;;;;;;;;;;4898720;29;20028;-73
2023/01/17 14:04:09;;;;;;;;;;;;;;;;;;4891767;29;20045;-75
2023/01/17 14:06:35;;;;;;;15.55;8.32;;;;;;;;;;4897728;29;20378;-72
2023/01/17 14:09:15;;;;;;;14.85;8.07;;;;;;;;;;4897485;29;20033;-74
2023/01/17 14:12:01;;;;;;;16.50;8.75;;;;;;;;;;4897340;29;20123;-75
2023/01/17 14:14:39;;;;;;;19.10;10.10;;;;;;;;;;4896272;29;20044;-74
2023/01/17 14:17:17;;;;;;;23.13;11.48;;;;;;;;;;4897788;29;20051;-73
2023/01/17 14:19:46;;;;;;;28.90;14.63;;;;;;;;;;4895844;29;20033;-77
2023/01/17 14:22:20;;;;;;;48.88;18.02;;;;;;;;;;4866652;29;20036;-76
2023/01/17 14:25:13;;;;;;;20.33;10.05;;;;;;;;;;4880463;29;20116;-76
2023/01/17 14:27:53;;;;;;;54.15;27.95;;;;;;;;;;4878056;29;20033;-77
2023/01/17 14:30:36;;;;;;;26.73;14.18;;;;;;;;;;4862221;29;20228;-76
2023/01/17 14:33:04;;;;;;;30.88;15.35;;;;;;;;;;4878727;29;20040;-75
2023/01/17 14:35:35;;;;;;;29.20;14.27;;;;;;;;;;4879560;29;20033;-75
2023/01/17 14:38:04;;;;;;;12.40;7.03;;;;;;;;;;4862401;29;20044;-77
2023/01/17 14:40:33;;;;;;;14.95;6.85;;;;;;;;;;4877679;29;20032;-76
2023/01/17 14:43:17;;;;;;;12.05;6.68;;;;;;;;;;4879566;29;20032;-76
2023/01/17 14:45:43;;;;;;;13.25;6.38;;;;;;;;;;4883989;29;20419;-76
2023/01/17 14:48:17;;;;;;;13.05;5.85;;;;;;;;;;4895808;29;20103;-76
2023/01/17 14:50:44;;;;;;;14.73;6.88;;;;;;;;;;4878887;29;20048;-75
2023/01/17 14:53:10;;;;;;;13.32;7.30;;;;;;;;;;4897075;29;20028;-75
2023/01/17 14:55:37;;;;;;;14.10;6.28;;;;;;;;;;4896984;29;20104;-75
2023/01/17 14:58:03;;;;;;;19.95;8.43;;;;;;;;;;4880391;29;20033;-75
2023/01/17 15:00:29;;;;;;;15.85;9.00;;;;;;;;;;4879498;29;20518;-75
2023/01/17 15:02:58;;;;;;;14.18;6.78;;;;;;;;;;4908387;29;20024;-75
2023/01/17 15:05:26;;;;;;;10.48;5.82;;;;;;;;;;4895109;29;20036;-76
2023/01/17 15:07:54;;;;;;;11.20;5.68;;;;;;;;;;4895880;29;20027;-75
2023/01/17 15:10:29;;;;;;;12.15;5.35;;;;;;;;;;4877875;29;20032;-75
2023/01/17 15:12:57;;;;;;;15.98;6.07;;;;;;;;;;4890340;29;20044;-74
2023/01/17 15:15:38;;;;;;;12.63;5.90;;;;;;;;;;4893471;29;20028;-76
2023/01/17 15:18:28;;;;;;;12.40;5.50;;;;;;;;;;4896306;29;20064;-74
2023/01/17 15:21:08;;;;;;;17.45;7.13;;;;;;;;;;4883226;29;20100;-77
2023/01/17 15:23:39;;;;;;;11.13;6.43;;;;;;;;;;4892095;29;20135;-76
2023/01/17 15:26:12;;;;;;;19.20;7.50;;;;;;;;;;4871008;29;20100;-78
2023/01/17 15:28:38;;;;;;;21.02;11.63;;;;;;;;;;4869558;29;20419;-77
2023/01/17 15:31:07;;;;;;;26.60;10.98;;;;;;;;;;4893625;29;20048;-76
2023/01/17 15:33:36;;;;;;;17.90;8.23;;;;;;;;;;4863310;29;20044;-79
2023/01/17 15:36:06;;;;;;;21.08;8.63;;;;;;;;;;4884696;29;20591;-76
2023/01/17 15:38:37;;;;;;;21.58;9.45;;;;;;;;;;4872323;29;20056;-77
2023/01/17 15:41:11;;;;;;;21.52;9.90;;;;;;;;;;4880307;29;20139;-77
2023/01/17 15:43:38;;;;;;;26.63;13.77;;;;;;;;;;4868162;29;20135;-78
2023/01/17 15:46:04;;;;;;;24.25;12.75;;;;;;;;;;4894770;29;20033;-76
2023/01/17 15:48:38;;;;;;;32.25;13.85;;;;;;;;;;4889691;29;20092;-75
2023/01/17 15:51:15;;;;;;;28.50;14.90;;;;;;;;;;4869193;29;20045;-76
2023/01/17 15:53:42;;;;;;;24.13;12.55;;;;;;;;;;4876545;29;20503;-78
2023/01/17 15:56:32;;;;;;;43.03;12.68;;;;;;;;;;4894311;29;20495;-77
2023/01/17 15:59:39;;;;;;;24.52;12.00;;;;;;;;;;4896062;29;20119;-77
2023/01/17 16:02:28;;;;;;;37.33;13.05;;;;;;;;;;4881305;29;20048;-77
2023/01/17 16:04:54;;;;;;;30.17;13.77;;;;;;;;;;4870876;29;20072;-79
2023/01/17 16:07:26;;;;;;;28.30;14.05;;;;;;;;;;4892149;29;20174;-78
2023/01/17 16:09:52;;;;;;;26.55;12.90;;;;;;;;;;4886907;29;20137;-77